sensor_id;sensor_type;location;lat;lon;timestamp;P1;durP1;ratioP1;P2;durP2;ratioP2
23288;SDS011;11813;50.834;4.280;2022-09-01T00:02:19;5.80;;;3.90;;
23288;SDS011;11813;50.834;4.280;2022-09-01T00:04:45;13.98;;;4.50;;
23288;SDS011;11813;50.834;4.280;2022-09-01T00:07:11;6.72;;;4.07;;
23288;SDS011;11813;50.834;4.280;2022-09-01T00:09:38;8.60;;;3.88;;
23288;SDS011;11813;50.834;4.280;2022-09-01T00:12:05;7.45;;;3.67;;
23288;SDS011;11813;50.834;4.280;2022-09-01T00:14:33;8.63;;;4.15;;
23288;SDS011;11813;50.834;4.280;2022-09-01T00:17:04;11.18;;;4.30;;
23288;SDS011;11813;50.834;4.280;2022-09-01T00:19:31;10.50;;;4.07;;
23288;SDS011;11813;50.834;4.280;2022-09-01T00:21:58;9.70;;;3.83;;
23288;SDS011;11813;50.834;4.280;2022-09-01T00:24:25;6.85;;;3.95;;
23288;SDS011;11813;50.834;4.280;2022-09-01T00:26:51;9.30;;;3.75;;
23288;SDS011;11813;50.834;4.280;2022-09-01T00:29:17;7.35;;;3.88;;
23288;SDS011;11813;50.834;4.280;2022-09-01T00:31:43;6.40;;;3.72;;
23288;SDS011;11813;50.834;4.280;2022-09-01T00:34:09;11.95;;;3.88;;
23288;SDS011;11813;50.834;4.280;2022-09-01T00:36:34;7.68;;;4.63;;
23288;SDS011;11813;50.834;4.280;2022-09-01T00:39:00;6.38;;;4.18;;
23288;SDS011;11813;50.834;4.280;2022-09-01T00:41:28;8.70;;;4.88;;
23288;SDS011;11813;50.834;4.280;2022-09-01T00:43:57;7.45;;;4.40;;
23288;SDS011;11813;50.834;4.280;2022-09-01T00:46:27;6.78;;;4.30;;
23288;SDS011;11813;50.834;4.280;2022-09-01T00:48:58;8.85;;;5.07;;
23288;SDS011;11813;50.834;4.280;2022-09-01T00:51:33;9.68;;;4.32;;
23288;SDS011;11813;50.834;4.280;2022-09-01T00:54:02;7.22;;;4.72;;
23288;SDS011;11813;50.834;4.280;2022-09-01T00:56:31;8.38;;;4.85;;
23288;SDS011;11813;50.834;4.280;2022-09-01T00:58:59;6.10;;;4.40;;
23288;SDS011;11813;50.834;4.280;2022-09-01T01:01:26;7.80;;;3.97;;
23288;SDS011;11813;50.834;4.280;2022-09-01T01:03:52;8.18;;;4.38;;
23288;SDS011;11813;50.834;4.280;2022-09-01T01:06:17;7.15;;;4.53;;
23288;SDS011;11813;50.834;4.280;2022-09-01T01:08:48;10.18;;;4.40;;
23288;SDS011;11813;50.834;4.280;2022-09-01T01:11:23;6.65;;;4.60;;
23288;SDS011;11813;50.834;4.280;2022-09-01T01:16:19;8.85;;;4.75;;
23288;SDS011;11813;50.834;4.280;2022-09-01T01:18:46;8.03;;;4.93;;
23288;SDS011;11813;50.834;4.280;2022-09-01T01:21:14;10.13;;;4.30;;
23288;SDS011;11813;50.834;4.280;2022-09-01T01:24:20;9.23;;;4.43;;
23288;SDS011;11813;50.834;4.280;2022-09-01T01:26:46;9.83;;;4.57;;
23288;SDS011;11813;50.834;4.280;2022-09-01T01:29:12;11.03;;;4.87;;
23288;SDS011;11813;50.834;4.280;2022-09-01T01:31:38;9.63;;;4.20;;
23288;SDS011;11813;50.834;4.280;2022-09-01T01:34:04;8.27;;;5.30;;
23288;SDS011;11813;50.834;4.280;2022-09-01T01:36:35;13.37;;;5.20;;
23288;SDS011;11813;50.834;4.280;2022-09-01T01:39:21;6.03;;;4.43;;
23288;SDS011;11813;50.834;4.280;2022-09-01T01:41:49;6.43;;;4.57;;
23288;SDS011;11813;50.834;4.280;2022-09-01T01:44:19;13.63;;;4.38;;
23288;SDS011;11813;50.834;4.280;2022-09-01T01:46:47;12.20;;;4.37;;
23288;SDS011;11813;50.834;4.280;2022-09-01T01:49:16;7.27;;;4.23;;
23288;SDS011;11813;50.834;4.280;2022-09-01T01:51:45;9.43;;;4.20;;
23288;SDS011;11813;50.834;4.280;2022-09-01T01:54:13;7.47;;;4.47;;
23288;SDS011;11813;50.834;4.280;2022-09-01T01:56:40;10.43;;;4.80;;
23288;SDS011;11813;50.834;4.280;2022-09-01T01:59:06;8.07;;;4.00;;
23288;SDS011;11813;50.834;4.280;2022-09-01T02:01:39;12.10;;;5.27;;
23288;SDS011;11813;50.834;4.280;2022-09-01T02:04:06;8.57;;;4.30;;
23288;SDS011;11813;50.834;4.280;2022-09-01T02:06:35;7.90;;;3.93;;
23288;SDS011;11813;50.834;4.280;2022-09-01T02:09:04;6.37;;;4.10;;
23288;SDS011;11813;50.834;4.280;2022-09-01T02:11:31;9.70;;;4.17;;
23288;SDS011;11813;50.834;4.280;2022-09-01T02:13:59;7.00;;;4.23;;
23288;SDS011;11813;50.834;4.280;2022-09-01T02:16:26;13.60;;;4.33;;
23288;SDS011;11813;50.834;4.280;2022-09-01T02:18:53;8.93;;;4.83;;
23288;SDS011;11813;50.834;4.280;2022-09-01T02:21:21;9.03;;;4.70;;
23288;SDS011;11813;50.834;4.280;2022-09-01T02:23:49;12.00;;;5.20;;
23288;SDS011;11813;50.834;4.280;2022-09-01T02:26:24;11.67;;;5.27;;
23288;SDS011;11813;50.834;4.280;2022-09-01T02:28:56;8.03;;;5.20;;
23288;SDS011;11813;50.834;4.280;2022-09-01T02:31:26;9.37;;;4.80;;
23288;SDS011;11813;50.834;4.280;2022-09-01T02:33:51;8.60;;;4.90;;
23288;SDS011;11813;50.834;4.280;2022-09-01T02:36:18;10.23;;;5.17;;
23288;SDS011;11813;50.834;4.280;2022-09-01T02:38:45;10.40;;;5.07;;
23288;SDS011;11813;50.834;4.280;2022-09-01T02:41:13;7.43;;;4.60;;
23288;SDS011;11813;50.834;4.280;2022-09-01T02:43:43;8.87;;;4.73;;
23288;SDS011;11813;50.834;4.280;2022-09-01T02:46:10;9.03;;;5.37;;
23288;SDS011;11813;50.834;4.280;2022-09-01T02:48:38;12.00;;;5.00;;
23288;SDS011;11813;50.834;4.280;2022-09-01T02:51:07;5.97;;;4.40;;
23288;SDS011;11813;50.834;4.280;2022-09-01T02:53:35;9.50;;;5.00;;
23288;SDS011;11813;50.834;4.280;2022-09-01T02:56:04;9.07;;;5.00;;
23288;SDS011;11813;50.834;4.280;2022-09-01T02:58:35;16.17;;;5.07;;
23288;SDS011;11813;50.834;4.280;2022-09-01T03:01:24;7.67;;;4.73;;
23288;SDS011;11813;50.834;4.280;2022-09-01T03:03:54;8.77;;;4.77;;
23288;SDS011;11813;50.834;4.280;2022-09-01T03:06:22;7.63;;;4.73;;
23288;SDS011;11813;50.834;4.280;2022-09-01T03:08:57;7.47;;;4.67;;
23288;SDS011;11813;50.834;4.280;2022-09-01T03:11:24;7.30;;;4.47;;
23288;SDS011;11813;50.834;4.280;2022-09-01T03:13:51;14.37;;;4.27;;
23288;SDS011;11813;50.834;4.280;2022-09-01T03:16:17;9.33;;;4.07;;
23288;SDS011;11813;50.834;4.280;2022-09-01T03:18:43;6.30;;;4.57;;
23288;SDS011;11813;50.834;4.280;2022-09-01T03:21:09;7.20;;;4.33;;
23288;SDS011;11813;50.834;4.280;2022-09-01T03:23:41;9.67;;;4.60;;
23288;SDS011;11813;50.834;4.280;2022-09-01T03:26:07;7.87;;;4.27;;
23288;SDS011;11813;50.834;4.280;2022-09-01T03:28:33;9.10;;;4.47;;
23288;SDS011;11813;50.834;4.280;2022-09-01T03:30:59;11.50;;;4.37;;
23288;SDS011;11813;50.834;4.280;2022-09-01T03:33:25;7.70;;;4.87;;
23288;SDS011;11813;50.834;4.280;2022-09-01T03:35:52;7.30;;;4.33;;
23288;SDS011;11813;50.834;4.280;2022-09-01T03:38:18;12.80;;;5.07;;
23288;SDS011;11813;50.834;4.280;2022-09-01T03:40:56;8.43;;;4.90;;
23288;SDS011;11813;50.834;4.280;2022-09-01T03:43:26;12.23;;;4.43;;
23288;SDS011;11813;50.834;4.280;2022-09-01T03:45:56;16.30;;;5.40;;
23288;SDS011;11813;50.834;4.280;2022-09-01T03:48:27;15.43;;;5.17;;
23288;SDS011;11813;50.834;4.280;2022-09-01T03:50:54;12.27;;;4.63;;
23288;SDS011;11813;50.834;4.280;2022-09-01T03:53:22;13.73;;;5.30;;
23288;SDS011;11813;50.834;4.280;2022-09-01T03:55:51;10.40;;;4.93;;
23288;SDS011;11813;50.834;4.280;2022-09-01T03:58:18;7.73;;;4.90;;
23288;SDS011;11813;50.834;4.280;2022-09-01T04:00:46;10.77;;;5.47;;
23288;SDS011;11813;50.834;4.280;2022-09-01T04:03:14;10.33;;;5.23;;
23288;SDS011;11813;50.834;4.280;2022-09-01T04:05:46;9.97;;;4.97;;
23288;SDS011;11813;50.834;4.280;2022-09-01T04:08:15;10.37;;;5.50;;
23288;SDS011;11813;50.834;4.280;2022-09-01T04:10:44;9.93;;;4.77;;
23288;SDS011;11813;50.834;4.280;2022-09-01T04:13:15;8.53;;;5.40;;
23288;SDS011;11813;50.834;4.280;2022-09-01T04:15:42;9.07;;;5.50;;
23288;SDS011;11813;50.834;4.280;2022-09-01T04:18:07;11.50;;;5.63;;
23288;SDS011;11813;50.834;4.280;2022-09-01T04:20:38;11.80;;;6.07;;
23288;SDS011;11813;50.834;4.280;2022-09-01T04:23:21;11.63;;;5.63;;
23288;SDS011;11813;50.834;4.280;2022-09-01T04:26:02;10.30;;;5.10;;
23288;SDS011;11813;50.834;4.280;2022-09-01T04:28:39;13.53;;;6.37;;
23288;SDS011;11813;50.834;4.280;2022-09-01T04:31:10;9.60;;;5.50;;
23288;SDS011;11813;50.834;4.280;2022-09-01T04:33:43;11.00;;;5.83;;
23288;SDS011;11813;50.834;4.280;2022-09-01T04:36:18;11.93;;;5.47;;
23288;SDS011;11813;50.834;4.280;2022-09-01T04:38:48;15.47;;;6.13;;
23288;SDS011;11813;50.834;4.280;2022-09-01T04:41:22;9.27;;;4.77;;
23288;SDS011;11813;50.834;4.280;2022-09-01T04:43:50;13.37;;;5.67;;
23288;SDS011;11813;50.834;4.280;2022-09-01T04:46:20;12.23;;;5.70;;
23288;SDS011;11813;50.834;4.280;2022-09-01T04:48:50;11.17;;;5.87;;
23288;SDS011;11813;50.834;4.280;2022-09-01T04:51:17;13.80;;;5.33;;
23288;SDS011;11813;50.834;4.280;2022-09-01T04:53:44;16.63;;;6.07;;
23288;SDS011;11813;50.834;4.280;2022-09-01T04:56:13;15.63;;;5.97;;
23288;SDS011;11813;50.834;4.280;2022-09-01T04:58:44;9.97;;;6.00;;
23288;SDS011;11813;50.834;4.280;2022-09-01T05:01:19;14.77;;;6.63;;
23288;SDS011;11813;50.834;4.280;2022-09-01T05:03:49;12.37;;;5.60;;
23288;SDS011;11813;50.834;4.280;2022-09-01T05:06:23;14.70;;;5.33;;
23288;SDS011;11813;50.834;4.280;2022-09-01T05:08:49;11.30;;;5.50;;
23288;SDS011;11813;50.834;4.280;2022-09-01T05:11:16;26.90;;;6.43;;
23288;SDS011;11813;50.834;4.280;2022-09-01T05:13:45;18.37;;;6.13;;
23288;SDS011;11813;50.834;4.280;2022-09-01T05:16:14;18.00;;;6.17;;
23288;SDS011;11813;50.834;4.280;2022-09-01T05:18:45;17.80;;;6.43;;
23288;SDS011;11813;50.834;4.280;2022-09-01T05:21:13;14.00;;;5.57;;
23288;SDS011;11813;50.834;4.280;2022-09-01T05:23:42;15.07;;;6.30;;
23288;SDS011;11813;50.834;4.280;2022-09-01T05:26:12;17.70;;;6.37;;
23288;SDS011;11813;50.834;4.280;2022-09-01T05:28:41;13.43;;;5.73;;
23288;SDS011;11813;50.834;4.280;2022-09-01T05:31:08;16.50;;;6.10;;
23288;SDS011;11813;50.834;4.280;2022-09-01T05:33:34;14.43;;;6.10;;
23288;SDS011;11813;50.834;4.280;2022-09-01T05:36:01;13.07;;;6.00;;
23288;SDS011;11813;50.834;4.280;2022-09-01T05:38:32;20.27;;;5.97;;
23288;SDS011;11813;50.834;4.280;2022-09-01T05:41:01;35.77;;;6.93;;
23288;SDS011;11813;50.834;4.280;2022-09-01T05:43:32;23.27;;;6.87;;
23288;SDS011;11813;50.834;4.280;2022-09-01T05:45:59;14.13;;;5.90;;
23288;SDS011;11813;50.834;4.280;2022-09-01T05:48:25;25.77;;;7.10;;
23288;SDS011;11813;50.834;4.280;2022-09-01T05:50:55;21.27;;;6.80;;
23288;SDS011;11813;50.834;4.280;2022-09-01T05:53:23;15.57;;;7.27;;
23288;SDS011;11813;50.834;4.280;2022-09-01T05:55:51;20.43;;;7.27;;
23288;SDS011;11813;50.834;4.280;2022-09-01T05:58:22;15.77;;;6.17;;
23288;SDS011;11813;50.834;4.280;2022-09-01T06:00:50;24.67;;;7.50;;
23288;SDS011;11813;50.834;4.280;2022-09-01T06:03:18;20.33;;;6.53;;
23288;SDS011;11813;50.834;4.280;2022-09-01T06:05:46;15.53;;;6.77;;
23288;SDS011;11813;50.834;4.280;2022-09-01T06:08:17;13.67;;;6.00;;
23288;SDS011;11813;50.834;4.280;2022-09-01T06:10:44;16.00;;;7.70;;
23288;SDS011;11813;50.834;4.280;2022-09-01T06:13:10;15.80;;;7.73;;
23288;SDS011;11813;50.834;4.280;2022-09-01T06:15:40;12.43;;;6.27;;
23288;SDS011;11813;50.834;4.280;2022-09-01T06:18:07;16.67;;;6.80;;
23288;SDS011;11813;50.834;4.280;2022-09-01T06:20:46;18.37;;;6.80;;
23288;SDS011;11813;50.834;4.280;2022-09-01T06:23:12;17.00;;;7.47;;
23288;SDS011;11813;50.834;4.280;2022-09-01T06:25:41;16.83;;;7.07;;
23288;SDS011;11813;50.834;4.280;2022-09-01T06:28:13;11.40;;;6.47;;
23288;SDS011;11813;50.834;4.280;2022-09-01T06:30:40;15.80;;;6.93;;
23288;SDS011;11813;50.834;4.280;2022-09-01T06:33:08;16.73;;;6.60;;
23288;SDS011;11813;50.834;4.280;2022-09-01T06:35:37;19.00;;;6.73;;
23288;SDS011;11813;50.834;4.280;2022-09-01T06:38:06;17.87;;;7.20;;
23288;SDS011;11813;50.834;4.280;2022-09-01T06:40:36;14.27;;;6.90;;
23288;SDS011;11813;50.834;4.280;2022-09-01T06:43:03;26.47;;;8.03;;
23288;SDS011;11813;50.834;4.280;2022-09-01T06:45:32;16.03;;;7.33;;
23288;SDS011;11813;50.834;4.280;2022-09-01T06:48:03;19.17;;;7.37;;
23288;SDS011;11813;50.834;4.280;2022-09-01T06:50:28;12.90;;;7.20;;
23288;SDS011;11813;50.834;4.280;2022-09-01T06:52:54;15.03;;;6.80;;
23288;SDS011;11813;50.834;4.280;2022-09-01T06:55:34;15.50;;;6.10;;
23288;SDS011;11813;50.834;4.280;2022-09-01T06:58:03;13.67;;;7.17;;
23288;SDS011;11813;50.834;4.280;2022-09-01T07:00:31;17.07;;;6.40;;
23288;SDS011;11813;50.834;4.280;2022-09-01T07:02:57;14.40;;;6.60;;
23288;SDS011;11813;50.834;4.280;2022-09-01T07:05:23;12.77;;;5.85;;
23288;SDS011;11813;50.834;4.280;2022-09-01T07:07:50;24.77;;;7.43;;
23288;SDS011;11813;50.834;4.280;2022-09-01T07:10:19;15.70;;;5.53;;
23288;SDS011;11813;50.834;4.280;2022-09-01T07:13:04;15.43;;;6.50;;
23288;SDS011;11813;50.834;4.280;2022-09-01T07:15:31;18.50;;;6.85;;
23288;SDS011;11813;50.834;4.280;2022-09-01T07:17:57;15.85;;;6.35;;
23288;SDS011;11813;50.834;4.280;2022-09-01T07:20:25;15.15;;;6.18;;
23288;SDS011;11813;50.834;4.280;2022-09-01T07:22:53;13.43;;;6.50;;
23288;SDS011;11813;50.834;4.280;2022-09-01T07:25:20;9.48;;;5.63;;
23288;SDS011;11813;50.834;4.280;2022-09-01T07:27:46;11.80;;;6.15;;
23288;SDS011;11813;50.834;4.280;2022-09-01T07:30:18;12.80;;;6.22;;
23288;SDS011;11813;50.834;4.280;2022-09-01T07:32:47;11.90;;;6.07;;
23288;SDS011;11813;50.834;4.280;2022-09-01T07:35:15;17.42;;;6.95;;
23288;SDS011;11813;50.834;4.280;2022-09-01T07:37:44;11.13;;;6.07;;
23288;SDS011;11813;50.834;4.280;2022-09-01T07:40:13;9.60;;;6.40;;
23288;SDS011;11813;50.834;4.280;2022-09-01T07:42:45;13.80;;;6.35;;
23288;SDS011;11813;50.834;4.280;2022-09-01T07:45:12;9.68;;;5.82;;
23288;SDS011;11813;50.834;4.280;2022-09-01T07:47:41;9.52;;;5.35;;
23288;SDS011;11813;50.834;4.280;2022-09-01T07:50:08;11.60;;;5.72;;
23288;SDS011;11813;50.834;4.280;2022-09-01T07:52:37;8.38;;;5.60;;
23288;SDS011;11813;50.834;4.280;2022-09-01T07:55:10;11.32;;;5.97;;
23288;SDS011;11813;50.834;4.280;2022-09-01T07:57:40;11.40;;;6.32;;
23288;SDS011;11813;50.834;4.280;2022-09-01T08:00:08;14.82;;;6.65;;
23288;SDS011;11813;50.834;4.280;2022-09-01T08:02:35;19.73;;;6.30;;
23288;SDS011;11813;50.834;4.280;2022-09-01T08:05:04;11.90;;;5.40;;
23288;SDS011;11813;50.834;4.280;2022-09-01T08:07:36;12.50;;;6.63;;
23288;SDS011;11813;50.834;4.280;2022-09-01T08:10:03;19.50;;;7.40;;
23288;SDS011;11813;50.834;4.280;2022-09-01T08:12:30;8.95;;;6.10;;
23288;SDS011;11813;50.834;4.280;2022-09-01T08:14:56;11.20;;;5.63;;
23288;SDS011;11813;50.834;4.280;2022-09-01T08:17:21;9.75;;;5.78;;
23288;SDS011;11813;50.834;4.280;2022-09-01T08:19:47;11.80;;;5.00;;
23288;SDS011;11813;50.834;4.280;2022-09-01T08:22:13;9.27;;;5.03;;
23288;SDS011;11813;50.834;4.280;2022-09-01T08:24:40;13.27;;;4.68;;
23288;SDS011;11813;50.834;4.280;2022-09-01T08:27:06;10.02;;;4.82;;
23288;SDS011;11813;50.834;4.280;2022-09-01T08:29:32;14.90;;;5.13;;
23288;SDS011;11813;50.834;4.280;2022-09-01T08:31:57;10.20;;;4.80;;
23288;SDS011;11813;50.834;4.280;2022-09-01T08:34:24;11.18;;;4.60;;
23288;SDS011;11813;50.834;4.280;2022-09-01T08:36:50;7.95;;;5.20;;
23288;SDS011;11813;50.834;4.280;2022-09-01T08:39:16;6.60;;;4.53;;
23288;SDS011;11813;50.834;4.280;2022-09-01T08:47:27;13.65;;;4.05;;
23288;SDS011;11813;50.834;4.280;2022-09-01T08:49:53;10.98;;;4.20;;
23288;SDS011;11813;50.834;4.280;2022-09-01T08:57:41;4.45;;;3.70;;
23288;SDS011;11813;50.834;4.280;2022-09-01T09:00:10;8.88;;;3.92;;
23288;SDS011;11813;50.834;4.280;2022-09-01T09:05:40;4.22;;;3.15;;
23288;SDS011;11813;50.834;4.280;2022-09-01T09:08:26;7.72;;;3.70;;
23288;SDS011;11813;50.834;4.280;2022-09-01T09:10:57;8.57;;;3.80;;
23288;SDS011;11813;50.834;4.280;2022-09-01T09:16:36;4.47;;;3.13;;
23288;SDS011;11813;50.834;4.280;2022-09-01T09:21:54;3.50;;;3.13;;
23288;SDS011;11813;50.834;4.280;2022-09-01T09:24:25;6.88;;;3.40;;
23288;SDS011;11813;50.834;4.280;2022-09-01T09:27:15;4.47;;;3.28;;
23288;SDS011;11813;50.834;4.280;2022-09-01T09:29:44;9.13;;;3.45;;
23288;SDS011;11813;50.834;4.280;2022-09-01T09:32:11;5.47;;;3.50;;
23288;SDS011;11813;50.834;4.280;2022-09-01T09:34:38;5.95;;;2.95;;
23288;SDS011;11813;50.834;4.280;2022-09-01T09:42:35;9.30;;;3.17;;
23288;SDS011;11813;50.834;4.280;2022-09-01T09:45:04;5.03;;;2.92;;
23288;SDS011;11813;50.834;4.280;2022-09-01T09:47:49;6.15;;;2.90;;
23288;SDS011;11813;50.834;4.280;2022-09-01T09:50:32;9.60;;;3.10;;
23288;SDS011;11813;50.834;4.280;2022-09-01T09:55:51;10.90;;;3.53;;
23288;SDS011;11813;50.834;4.280;2022-09-01T09:58:28;6.22;;;3.15;;
23288;SDS011;11813;50.834;4.280;2022-09-01T10:01:02;5.57;;;3.10;;
23288;SDS011;11813;50.834;4.280;2022-09-01T10:03:38;5.40;;;3.70;;
23288;SDS011;11813;50.834;4.280;2022-09-01T10:06:35;7.75;;;2.92;;
23288;SDS011;11813;50.834;4.280;2022-09-01T10:09:10;10.20;;;3.10;;
23288;SDS011;11813;50.834;4.280;2022-09-01T10:11:44;8.43;;;3.30;;
23288;SDS011;11813;50.834;4.280;2022-09-01T10:14:16;4.97;;;2.60;;
23288;SDS011;11813;50.834;4.280;2022-09-01T10:16:52;6.65;;;2.40;;
23288;SDS011;11813;50.834;4.280;2022-09-01T10:19:22;6.97;;;2.47;;
23288;SDS011;11813;50.834;4.280;2022-09-01T10:21:48;4.25;;;2.30;;
23288;SDS011;11813;50.834;4.280;2022-09-01T10:24:33;6.25;;;2.17;;
23288;SDS011;11813;50.834;4.280;2022-09-01T10:27:03;3.42;;;2.30;;
23288;SDS011;11813;50.834;4.280;2022-09-01T10:32:30;3.17;;;1.90;;
23288;SDS011;11813;50.834;4.280;2022-09-01T10:35:01;5.43;;;2.03;;
23288;SDS011;11813;50.834;4.280;2022-09-01T10:37:28;6.40;;;2.00;;
23288;SDS011;11813;50.834;4.280;2022-09-01T10:42:56;5.45;;;2.05;;
23288;SDS011;11813;50.834;4.280;2022-09-01T10:50:51;4.68;;;2.28;;
23288;SDS011;11813;50.834;4.280;2022-09-01T10:53:39;6.20;;;2.05;;
23288;SDS011;11813;50.834;4.280;2022-09-01T10:56:26;3.05;;;2.13;;
23288;SDS011;11813;50.834;4.280;2022-09-01T11:07:04;6.00;;;2.35;;
23288;SDS011;11813;50.834;4.280;2022-09-01T11:15:32;5.93;;;2.65;;
23288;SDS011;11813;50.834;4.280;2022-09-01T11:17:58;3.40;;;2.10;;
23288;SDS011;11813;50.834;4.280;2022-09-01T11:20:25;5.90;;;2.25;;
23288;SDS011;11813;50.834;4.280;2022-09-01T11:35:59;2.65;;;1.73;;
23288;SDS011;11813;50.834;4.280;2022-09-01T11:38:28;4.05;;;2.05;;
23288;SDS011;11813;50.834;4.280;2022-09-01T11:41:02;12.00;;;2.08;;
23288;SDS011;11813;50.834;4.280;2022-09-01T11:43:27;3.67;;;2.08;;
23288;SDS011;11813;50.834;4.280;2022-09-01T11:48:20;1.92;;;1.70;;
23288;SDS011;11813;50.834;4.280;2022-09-01T11:50:46;2.30;;;1.80;;
23288;SDS011;11813;50.834;4.280;2022-09-01T11:53:26;9.35;;;1.98;;
23288;SDS011;11813;50.834;4.280;2022-09-01T11:56:10;3.38;;;1.90;;
23288;SDS011;11813;50.834;4.280;2022-09-01T11:58:56;3.10;;;2.42;;
23288;SDS011;11813;50.834;4.280;2022-09-01T12:01:30;4.07;;;2.00;;
23288;SDS011;11813;50.834;4.280;2022-09-01T12:06:55;4.15;;;2.05;;
23288;SDS011;11813;50.834;4.280;2022-09-01T12:09:30;9.25;;;2.75;;
23288;SDS011;11813;50.834;4.280;2022-09-01T12:12:01;2.92;;;2.30;;
23288;SDS011;11813;50.834;4.280;2022-09-01T12:14:27;4.38;;;2.30;;
23288;SDS011;11813;50.834;4.280;2022-09-01T12:16:57;5.35;;;2.10;;
23288;SDS011;11813;50.834;4.280;2022-09-01T12:19:32;2.97;;;1.90;;
23288;SDS011;11813;50.834;4.280;2022-09-01T12:22:00;6.05;;;2.03;;
23288;SDS011;11813;50.834;4.280;2022-09-01T12:24:47;2.55;;;2.15;;
23288;SDS011;11813;50.834;4.280;2022-09-01T12:27:15;4.20;;;2.20;;
23288;SDS011;11813;50.834;4.280;2022-09-01T12:29:41;3.15;;;2.42;;
23288;SDS011;11813;50.834;4.280;2022-09-01T12:32:07;5.60;;;2.20;;
23288;SDS011;11813;50.834;4.280;2022-09-01T12:37:09;2.40;;;2.10;;
23288;SDS011;11813;50.834;4.280;2022-09-01T12:39:42;4.32;;;2.17;;
23288;SDS011;11813;50.834;4.280;2022-09-01T12:44:55;3.35;;;2.22;;
23288;SDS011;11813;50.834;4.280;2022-09-01T12:49:58;6.32;;;2.20;;
23288;SDS011;11813;50.834;4.280;2022-09-01T12:52:25;5.93;;;2.08;;
23288;SDS011;11813;50.834;4.280;2022-09-01T13:02:40;5.88;;;2.20;;
23288;SDS011;11813;50.834;4.280;2022-09-01T13:05:25;4.70;;;2.00;;
23288;SDS011;11813;50.834;4.280;2022-09-01T13:08:03;5.03;;;1.65;;
23288;SDS011;11813;50.834;4.280;2022-09-01T13:10:37;2.90;;;2.35;;
23288;SDS011;11813;50.834;4.280;2022-09-01T13:13:11;2.90;;;2.08;;
23288;SDS011;11813;50.834;4.280;2022-09-01T13:15:39;5.43;;;2.17;;
23288;SDS011;11813;50.834;4.280;2022-09-01T13:18:07;2.78;;;1.85;;
23288;SDS011;11813;50.834;4.280;2022-09-01T13:20:33;3.75;;;2.10;;
23288;SDS011;11813;50.834;4.280;2022-09-01T13:22:59;6.57;;;2.10;;
23288;SDS011;11813;50.834;4.280;2022-09-01T13:25:25;3.33;;;1.90;;
23288;SDS011;11813;50.834;4.280;2022-09-01T13:27:51;7.07;;;2.10;;
23288;SDS011;11813;50.834;4.280;2022-09-01T13:30:19;5.07;;;2.17;;
23288;SDS011;11813;50.834;4.280;2022-09-01T13:32:52;4.50;;;1.92;;
23288;SDS011;11813;50.834;4.280;2022-09-01T13:35:19;4.75;;;1.95;;
23288;SDS011;11813;50.834;4.280;2022-09-01T13:37:45;5.30;;;1.88;;
23288;SDS011;11813;50.834;4.280;2022-09-01T13:40:12;3.30;;;1.80;;
23288;SDS011;11813;50.834;4.280;2022-09-01T13:42:41;7.40;;;2.22;;
23288;SDS011;11813;50.834;4.280;2022-09-01T13:45:11;6.10;;;2.10;;
23288;SDS011;11813;50.834;4.280;2022-09-01T13:47:41;4.18;;;1.85;;
23288;SDS011;11813;50.834;4.280;2022-09-01T13:50:09;5.70;;;2.60;;
23288;SDS011;11813;50.834;4.280;2022-09-01T13:52:41;7.55;;;1.85;;
23288;SDS011;11813;50.834;4.280;2022-09-01T13:55:10;5.25;;;2.25;;
23288;SDS011;11813;50.834;4.280;2022-09-01T13:57:37;4.95;;;2.20;;
23288;SDS011;11813;50.834;4.280;2022-09-01T14:00:04;9.63;;;2.50;;
23288;SDS011;11813;50.834;4.280;2022-09-01T14:02:34;3.60;;;2.50;;
23288;SDS011;11813;50.834;4.280;2022-09-01T14:05:01;6.78;;;2.20;;
23288;SDS011;11813;50.834;4.280;2022-09-01T14:07:28;5.30;;;2.20;;
23288;SDS011;11813;50.834;4.280;2022-09-01T14:09:54;5.43;;;2.00;;
23288;SDS011;11813;50.834;4.280;2022-09-01T14:12:20;3.90;;;2.13;;
23288;SDS011;11813;50.834;4.280;2022-09-01T14:14:46;2.00;;;1.70;;
23288;SDS011;11813;50.834;4.280;2022-09-01T14:17:11;5.35;;;2.00;;
23288;SDS011;11813;50.834;4.280;2022-09-01T14:19:37;5.97;;;2.40;;
23288;SDS011;11813;50.834;4.280;2022-09-01T14:22:03;7.70;;;2.20;;
23288;SDS011;11813;50.834;4.280;2022-09-01T14:24:30;3.28;;;2.28;;
23288;SDS011;11813;50.834;4.280;2022-09-01T14:26:59;4.38;;;1.88;;
23288;SDS011;11813;50.834;4.280;2022-09-01T14:29:25;7.07;;;2.42;;
23288;SDS011;11813;50.834;4.280;2022-09-01T14:31:51;5.13;;;2.30;;
23288;SDS011;11813;50.834;4.280;2022-09-01T14:34:17;8.15;;;2.17;;
23288;SDS011;11813;50.834;4.280;2022-09-01T14:36:43;5.45;;;2.40;;
23288;SDS011;11813;50.834;4.280;2022-09-01T14:39:09;5.43;;;2.00;;
23288;SDS011;11813;50.834;4.280;2022-09-01T14:41:34;7.40;;;2.70;;
23288;SDS011;11813;50.834;4.280;2022-09-01T14:44:00;7.75;;;2.47;;
23288;SDS011;11813;50.834;4.280;2022-09-01T14:46:26;5.40;;;2.00;;
23288;SDS011;11813;50.834;4.280;2022-09-01T14:48:54;3.67;;;2.33;;
23288;SDS011;11813;50.834;4.280;2022-09-01T14:51:27;2.67;;;2.03;;
23288;SDS011;11813;50.834;4.280;2022-09-01T14:53:54;3.58;;;2.03;;
23288;SDS011;11813;50.834;4.280;2022-09-01T14:56:20;8.52;;;2.38;;
23288;SDS011;11813;50.834;4.280;2022-09-01T14:58:47;3.58;;;1.70;;
23288;SDS011;11813;50.834;4.280;2022-09-01T15:01:15;5.10;;;1.95;;
23288;SDS011;11813;50.834;4.280;2022-09-01T15:03:42;4.32;;;2.03;;
23288;SDS011;11813;50.834;4.280;2022-09-01T15:06:13;3.63;;;2.20;;
23288;SDS011;11813;50.834;4.280;2022-09-01T15:08:41;4.03;;;1.92;;
23288;SDS011;11813;50.834;4.280;2022-09-01T15:11:10;5.78;;;2.13;;
23288;SDS011;11813;50.834;4.280;2022-09-01T15:13:39;7.47;;;1.77;;
23288;SDS011;11813;50.834;4.280;2022-09-01T15:16:11;5.32;;;2.17;;
23288;SDS011;11813;50.834;4.280;2022-09-01T15:18:42;5.50;;;1.90;;
23288;SDS011;11813;50.834;4.280;2022-09-01T15:21:16;4.88;;;2.03;;
23288;SDS011;11813;50.834;4.280;2022-09-01T15:23:49;4.03;;;1.85;;
23288;SDS011;11813;50.834;4.280;2022-09-01T15:26:16;5.75;;;2.00;;
23288;SDS011;11813;50.834;4.280;2022-09-01T15:28:43;4.47;;;1.77;;
23288;SDS011;11813;50.834;4.280;2022-09-01T15:31:09;1.65;;;1.55;;
23288;SDS011;11813;50.834;4.280;2022-09-01T15:33:36;6.35;;;3.28;;
23288;SDS011;11813;50.834;4.280;2022-09-01T15:36:03;5.72;;;1.88;;
23288;SDS011;11813;50.834;4.280;2022-09-01T15:38:28;4.65;;;1.70;;
23288;SDS011;11813;50.834;4.280;2022-09-01T15:40:54;4.28;;;1.65;;
23288;SDS011;11813;50.834;4.280;2022-09-01T15:43:20;4.25;;;1.95;;
23288;SDS011;11813;50.834;4.280;2022-09-01T15:45:46;2.10;;;1.60;;
23288;SDS011;11813;50.834;4.280;2022-09-01T15:48:12;2.13;;;1.80;;
23288;SDS011;11813;50.834;4.280;2022-09-01T15:50:38;2.05;;;1.65;;
23288;SDS011;11813;50.834;4.280;2022-09-01T15:53:04;2.42;;;1.80;;
23288;SDS011;11813;50.834;4.280;2022-09-01T15:55:39;5.03;;;1.70;;
23288;SDS011;11813;50.834;4.280;2022-09-01T15:58:10;3.30;;;2.03;;
23288;SDS011;11813;50.834;4.280;2022-09-01T16:00:38;3.05;;;1.55;;
23288;SDS011;11813;50.834;4.280;2022-09-01T16:03:04;5.55;;;1.67;;
23288;SDS011;11813;50.834;4.280;2022-09-01T16:05:31;5.82;;;1.73;;
23288;SDS011;11813;50.834;4.280;2022-09-01T16:07:59;3.72;;;1.60;;
23288;SDS011;11813;50.834;4.280;2022-09-01T16:10:26;2.88;;;1.60;;
23288;SDS011;11813;50.834;4.280;2022-09-01T16:12:53;2.92;;;1.80;;
23288;SDS011;11813;50.834;4.280;2022-09-01T16:15:21;4.53;;;1.92;;
23288;SDS011;11813;50.834;4.280;2022-09-01T16:20:19;3.22;;;1.60;;
23288;SDS011;11813;50.834;4.280;2022-09-01T16:22:50;3.30;;;1.70;;
23288;SDS011;11813;50.834;4.280;2022-09-01T16:25:28;6.75;;;1.70;;
23288;SDS011;11813;50.834;4.280;2022-09-01T16:27:56;5.75;;;1.70;;
23288;SDS011;11813;50.834;4.280;2022-09-01T16:30:26;7.45;;;1.70;;